Time;durP1;ratioP1;P1;durP2;ratioP2;P2;SDS_P1;SDS_P2;PMS_P1;PMS_P2;Temp;Humidity;BMP_temperature;BMP_pressure;BME280_temperature;BME280_humidity;BME280_pressure;Samples;Min_cycle;Max_cycle;Signal;HPM_P1;HPM_P2
2021/09/25 00:01:21;;;;;;;9.03;4.70;;;;;;;15.61;100.00;100739.34;7396451;19;20491;-54
2021/09/25 00:03:51;;;;;;;9.87;4.77;;;;;;;15.60;100.00;100741.09;7400653;19;20487;-56
2021/09/25 00:06:21;;;;;;;8.53;5.07;;;;;;;15.67;100.00;100744.69;7385825;19;20415;-54
2021/09/25 00:08:54;;;;;;;10.80;5.30;;;;;;;15.70;100.00;100751.69;7402109;19;20391;-59
2021/09/25 00:11:25;;;;;;;8.83;4.73;;;;;;;15.69;100.00;100740.38;7396305;19;20415;-59
2021/09/25 00:13:55;;;;;;;8.97;4.37;;;;;;;15.59;100.00;100744.50;7400268;19;20426;-54
2021/09/25 00:16:26;;;;;;;15.87;5.20;;;;;;;15.65;100.00;100746.38;7395618;19;20688;-57
2021/09/25 00:18:56;;;;;;;9.43;4.50;;;;;;;15.59;100.00;100746.25;7401709;19;20396;-53
2021/09/25 00:21:26;;;;;;;8.63;4.50;;;;;;;15.59;100.00;100743.66;7395056;19;20498;-57
2021/09/25 00:23:58;;;;;;;10.50;5.10;;;;;;;15.56;100.00;100739.28;7400411;19;20433;-59
2021/09/25 00:26:28;;;;;;;9.97;4.77;;;;;;;15.67;100.00;100734.28;7394332;19;20422;-57
2021/09/25 00:28:58;;;;;;;12.80;4.63;;;;;;;15.57;100.00;100747.94;7401206;19;20392;-58
2021/09/25 00:31:27;;;;;;;11.03;4.57;;;;;;;15.60;100.00;100748.00;7394505;19;20423;-55
2021/09/25 00:33:57;;;;;;;9.87;4.90;;;;;;;15.60;100.00;100737.59;7399944;19;20419;-58
2021/09/25 00:36:26;;;;;;;11.10;4.37;;;;;;;15.59;100.00;100741.06;7393130;19;20408;-59
2021/09/25 00:38:58;;;;;;;7.67;4.80;;;;;;;15.58;100.00;100740.16;7400830;19;20460;-56
2021/09/25 00:41:28;;;;;;;12.47;5.20;;;;;;;15.54;100.00;100748.78;7394145;19;20420;-58
2021/09/25 00:43:57;;;;;;;7.90;4.90;;;;;;;15.64;100.00;100744.63;7399276;19;20416;-58
2021/09/25 00:46:27;;;;;;;7.80;4.13;;;;;;;15.61;100.00;100741.97;7393296;19;20491;-55
2021/09/25 00:48:56;;;;;;;14.27;5.40;;;;;;;15.58;100.00;100732.38;7400700;19;20384;-55
2021/09/25 00:51:26;;;;;;;10.30;5.07;;;;;;;15.58;100.00;100740.16;7394956;19;20411;-57
2021/09/25 00:53:55;;;;;;;11.30;6.10;;;;;;;15.57;100.00;100741.00;7399151;19;20447;-54
2021/09/25 00:56:28;;;;;;;9.53;5.43;;;;;;;15.57;100.00;100732.31;7394260;19;21320;-56
2021/09/25 00:58:58;;;;;;;12.30;5.03;;;;;;;15.57;100.00;100738.41;7400445;19;20427;-57
2021/09/25 01:01:28;;;;;;;9.73;4.67;;;;;;;15.56;100.00;100734.06;7395357;19;20455;-58
2021/09/25 01:03:58;;;;;;;10.53;5.20;;;;;;;15.63;100.00;100740.25;7398945;19;20411;-58
2021/09/25 01:06:28;;;;;;;11.73;5.03;;;;;;;15.63;100.00;100737.66;7394323;19;20411;-54
2021/09/25 01:08:57;;;;;;;11.27;5.60;;;;;;;15.57;100.00;100740.13;7400123;19;20455;-59
2021/09/25 01:11:30;;;;;;;9.10;5.60;;;;;;;15.62;100.00;100742.00;7394556;19;20693;-59
2021/09/25 01:13:59;;;;;;;11.60;5.03;;;;;;;15.65;100.00;100749.00;7398718;19;20483;-60
2021/09/25 01:16:29;;;;;;;7.43;5.00;;;;;;;15.59;100.00;100744.50;7392527;19;20471;-59
2021/09/25 01:18:59;;;;;;;8.53;5.27;;;;;;;15.57;100.00;100754.03;7399656;19;20392;-59
2021/09/25 01:21:31;;;;;;;9.43;5.60;;;;;;;15.50;100.00;100750.41;7394144;19;20490;-57
2021/09/25 01:24:00;;;;;;;13.77;5.90;;;;;;;15.48;100.00;100752.09;7398695;19;20467;-59
2021/09/25 01:26:30;;;;;;;12.30;6.57;;;;;;;15.44;100.00;100763.25;7395552;19;20415;-60
2021/09/25 01:28:59;;;;;;;15.47;6.53;;;;;;;15.48;100.00;100767.69;7399363;19;20846;-59
2021/09/25 01:31:29;;;;;;;13.60;5.30;;;;;;;15.53;100.00;100767.78;7389979;19;20403;-55
2021/09/25 01:33:58;;;;;;;11.07;5.97;;;;;;;15.52;100.00;100771.25;7398300;19;20428;-57
2021/09/25 01:36:30;;;;;;;22.53;6.97;;;;;;;15.49;100.00;100777.25;7391105;19;20425;-56
2021/09/25 01:39:00;;;;;;;14.67;6.63;;;;;;;15.45;100.00;100778.03;7399094;19;20391;-56
2021/09/25 01:41:29;;;;;;;11.87;5.90;;;;;;;15.38;100.00;100776.13;7390955;19;20435;-57
2021/09/25 01:43:59;;;;;;;11.87;6.23;;;;;;;15.29;100.00;100783.72;7398036;19;20475;-56
2021/09/25 01:46:28;;;;;;;11.40;7.60;;;;;;;15.29;100.00;100794.13;7391792;19;20478;-60
2021/09/25 01:48:58;;;;;;;11.97;7.47;;;;;;;15.21;100.00;100792.25;7398794;19;20455;-58
2021/09/25 01:51:30;;;;;;;18.77;7.80;;;;;;;15.23;100.00;100798.34;7393069;19;20478;-54
2021/09/25 01:54:00;;;;;;;16.23;8.00;;;;;;;15.16;100.00;100804.25;7397556;19;20419;-53
2021/09/25 01:56:29;;;;;;;17.00;7.90;;;;;;;15.16;100.00;100804.25;7392571;19;20427;-53
2021/09/25 01:58:59;;;;;;;18.67;8.10;;;;;;;15.18;100.00;100805.13;7406374;19;20396;-59
2021/09/25 02:01:28;;;;;;;13.53;7.73;;;;;;;15.15;100.00;100804.19;7399545;19;20415;-57
2021/09/25 02:03:58;;;;;;;23.07;8.33;;;;;;;15.19;100.00;100800.84;7404202;19;20519;-59
2021/09/25 02:06:31;;;;;;;22.03;7.77;;;;;;;15.22;100.00;100811.28;7399888;19;20415;-57
2021/09/25 02:09:00;;;;;;;16.30;7.47;;;;;;;15.13;100.00;100804.19;7406159;19;20386;-55
2021/09/25 02:11:30;;;;;;;17.17;8.40;;;;;;;15.13;100.00;100804.19;7400477;19;20411;-55
2021/09/25 02:13:59;;;;;;;18.40;8.70;;;;;;;15.15;100.00;100809.38;7403629;19;20403;-56
2021/09/25 02:16:29;;;;;;;15.63;8.00;;;;;;;15.10;100.00;100809.28;7398250;19;20682;-56
2021/09/25 02:18:58;;;;;;;16.93;8.27;;;;;;;15.09;100.00;100810.13;7405587;19;20447;-55
2021/09/25 02:21:30;;;;;;;12.63;7.70;;;;;;;15.01;100.00;100819.47;7398984;19;20406;-56
2021/09/25 02:24:00;;;;;;;19.03;8.83;;;;;;;15.06;100.00;100816.13;7403666;19;20415;-53
2021/09/25 02:26:29;;;;;;;20.17;10.57;;;;;;;15.04;100.00;100810.03;7397992;19;20486;-57
2021/09/25 02:28:59;;;;;;;21.13;9.43;;;;;;;15.04;100.00;100812.63;7405262;19;20848;-55
2021/09/25 02:31:28;;;;;;;20.97;8.93;;;;;;;15.03;100.00;100816.03;7398461;19;20433;-57
2021/09/25 02:33:58;;;;;;;17.10;9.27;;;;;;;15.09;100.00;100817.94;7403250;19;20462;-54
2021/09/25 02:36:30;;;;;;;18.97;10.13;;;;;;;15.02;100.00;100826.41;7396715;19;20688;-58
2021/09/25 02:39:01;;;;;;;20.83;10.07;;;;;;;15.05;100.00;100822.19;7404960;19;20388;-55
2021/09/25 02:41:31;;;;;;;16.33;9.90;;;;;;;14.95;100.00;100821.06;7398225;19;20882;-55
2021/09/25 02:44:00;;;;;;;19.73;11.80;;;;;;;15.01;100.00;100820.34;7403027;19;20423;-56
2021/09/25 02:46:30;;;;;;;18.93;10.37;;;;;;;14.96;100.00;100832.31;7397463;19;20925;-50
2021/09/25 02:48:59;;;;;;;21.33;11.67;;;;;;;14.99;100.00;100835.88;7404486;19;20391;-57
2021/09/25 02:51:31;;;;;;;26.57;12.10;;;;;;;14.99;100.00;100829.81;7397807;19;20478;-57
2021/09/25 02:54:01;;;;;;;23.60;12.90;;;;;;;14.93;100.00;100833.13;7402670;19;20418;-54
2021/09/25 02:56:30;;;;;;;20.10;12.10;;;;;;;14.99;100.00;100827.22;7395876;19;20427;-58
2021/09/25 02:58:59;;;;;;;24.13;12.40;;;;;;;14.93;100.00;100825.34;7404438;19;20452;-48
2021/09/25 03:01:46;;;;;;;23.53;12.57;;;;;;;14.92;100.00;100831.38;7397907;19;20503;-53
2021/09/25 03:04:16;;;;;;;24.57;13.10;;;;;;;14.94;100.00;100829.72;7402640;19;20408;-56
2021/09/25 03:06:48;;;;;;;26.17;13.30;;;;;;;14.98;100.00;100831.53;7397471;19;20714;-58
2021/09/25 03:09:17;;;;;;;23.50;12.97;;;;;;;14.99;100.00;100840.22;7408373;19;20459;-59
2021/09/25 03:11:47;;;;;;;31.73;14.20;;;;;;;14.93;100.00;100833.13;7397840;19;20441;-56
2021/09/25 03:14:16;;;;;;;30.17;14.37;;;;;;;14.87;100.00;100838.16;7401830;19;20426;-58
2021/09/25 03:16:46;;;;;;;26.23;13.50;;;;;;;14.90;100.00;100840.84;7396580;19;20928;-53
2021/09/25 03:19:15;;;;;;;27.70;15.70;;;;;;;14.90;100.00;100847.75;7403854;19;20397;-56
2021/09/25 03:21:47;;;;;;;29.23;14.30;;;;;;;14.92;100.00;100841.75;7398014;19;20419;-59
2021/09/25 03:24:17;;;;;;;30.50;14.97;;;;;;;14.90;100.00;100848.66;7401677;19;20424;-57
2021/09/25 03:26:46;;;;;;;29.53;15.30;;;;;;;14.86;100.00;100841.59;7397192;19;20669;-55
2021/09/25 03:29:16;;;;;;;26.63;16.07;;;;;;;14.94;100.00;100844.41;7406361;19;20400;-57
2021/09/25 03:31:45;;;;;;;31.00;16.17;;;;;;;14.94;100.00;100850.50;7397487;19;20411;-60
2021/09/25 03:34:15;;;;;;;28.33;17.30;;;;;;;14.89;100.00;100857.28;7401353;19;20459;-59
2021/09/25 03:36:47;;;;;;;27.17;16.27;;;;;;;14.85;100.00;100860.63;7396074;19;20419;-59
2021/09/25 03:39:17;;;;;;;33.90;16.53;;;;;;;14.88;100.00;100855.53;7403407;19;20451;-56
2021/09/25 03:41:46;;;;;;;30.10;15.97;;;;;;;14.93;100.00;100859.09;7397270;19;20945;-59
2021/09/25 03:44:16;;;;;;;23.27;14.97;;;;;;;14.95;100.00;100854.84;7401097;19;20423;-58
2021/09/25 03:46:45;;;;;;;29.87;15.83;;;;;;;14.96;100.00;100853.09;7396322;19;20418;-56
2021/09/25 03:49:15;;;;;;;28.43;17.27;;;;;;;15.00;100.00;100857.56;7402988;19;20394;-54
2021/09/25 03:51:44;;;;;;;28.70;15.40;;;;;;;14.93;100.00;100853.91;7396839;19;20890;-57
2021/09/25 03:54:16;;;;;;;31.67;18.40;;;;;;;14.99;100.00;100859.25;7400991;19;20495;-55
2021/09/25 03:56:46;;;;;;;28.90;18.50;;;;;;;15.02;100.00;100858.47;7395562;19;20427;-58
2021/09/25 03:59:15;;;;;;;31.27;17.93;;;;;;;15.01;100.00;100871.44;7402660;19;20460;-59
2021/09/25 04:01:44;;;;;;;27.93;15.70;;;;;;;14.93;100.00;100874.69;7394961;19;20491;-56
2021/09/25 04:04:14;;;;;;;29.37;17.27;;;;;;;14.96;100.00;100876.50;7400709;19;20491;-53
2021/09/25 04:06:44;;;;;;;37.00;19.70;;;;;;;14.99;100.00;100869.66;7394662;19;20491;-57
2021/09/25 04:09:16;;;;;;;34.87;20.00;;;;;;;15.01;100.00;100874.88;7402304;19;20456;-57
2021/09/25 04:11:48;;;;;;;33.10;18.80;;;;;;;14.94;100.00;100879.06;7395250;19;20491;-59
2021/09/25 04:14:19;;;;;;;27.47;17.07;;;;;;;14.96;100.00;100874.78;7400282;19;20483;-57
2021/09/25 04:16:49;;;;;;;31.30;17.77;;;;;;;14.97;100.00;100865.25;7393069;19;20439;-57
2021/09/25 04:19:19;;;;;;;37.80;18.87;;;;;;;14.99;100.00;100869.66;7400534;19;20842;-58
2021/09/25 04:21:49;;;;;;;32.90;18.47;;;;;;;15.05;100.00;100873.25;7394899;19;20425;-58
2021/09/25 04:24:21;;;;;;;37.77;18.87;;;;;;;15.06;100.00;100869.81;7400036;19;20418;-56
2021/09/25 04:26:50;;;;;;;35.50;19.17;;;;;;;14.97;100.00;100866.16;7393849;19;20487;-57
2021/09/25 04:29:20;;;;;;;32.30;17.80;;;;;;;15.03;100.00;100874.94;7401604;19;20461;-56
2021/09/25 04:31:50;;;;;;;36.97;19.50;;;;;;;14.97;100.00;100866.16;7394373;19;20423;-57
2021/09/25 04:34:19;;;;;;;30.97;18.80;;;;;;;15.05;100.00;100870.66;7399706;19;20407;-60
2021/09/25 04:36:49;;;;;;;32.17;19.60;;;;;;;15.03;100.00;100874.94;7392595;19;20510;-55
2021/09/25 04:39:21;;;;;;;34.40;20.07;;;;;;;15.02;100.00;100884.44;7401287;19;20909;-56
2021/09/25 04:41:50;;;;;;;33.97;19.40;;;;;;;15.00;100.00;100878.34;7393889;19;20411;-56
2021/09/25 04:44:20;;;;;;;30.57;19.27;;;;;;;15.07;100.00;100876.78;7399538;19;20510;-58
2021/09/25 04:46:49;;;;;;;35.50;21.17;;;;;;;15.05;100.00;100888.84;7392877;19;20706;-52
2021/09/25 04:49:19;;;;;;;31.67;19.37;;;;;;;15.11;100.00;100883.78;7401037;19;20669;-54
2021/09/25 04:51:48;;;;;;;32.83;19.40;;;;;;;15.12;100.00;100881.25;7393718;19;20419;-56
2021/09/25 04:54:20;;;;;;;32.20;18.80;;;;;;;15.07;100.00;100892.38;7399312;19;20420;-54
2021/09/25 04:56:50;;;;;;;39.10;19.90;;;;;;;15.08;100.00;100888.94;7392210;19;20437;-58
2021/09/25 04:59:19;;;;;;;35.90;21.13;;;;;;;15.11;100.00;100881.19;7400654;19;20753;-57
2021/09/25 05:01:49;;;;;;;38.80;21.70;;;;;;;15.09;100.00;100885.50;7393126;19;20424;-53
2021/09/25 05:04:19;;;;;;;39.50;22.60;;;;;;;15.16;100.00;100882.19;7398940;19;20415;-52
2021/09/25 05:06:48;;;;;;;46.23;22.27;;;;;;;15.12;100.00;100881.25;7393313;19;20455;-53
2021/09/25 05:09:22;;;;;;;38.70;22.03;;;;;;;15.16;100.00;100890.00;7400367;19;20392;-58
2021/09/25 05:11:52;;;;;;;41.70;22.60;;;;;;;15.21;100.00;100888.41;7392814;19;20421;-53
2021/09/25 05:14:21;;;;;;;35.67;22.30;;;;;;;15.19;100.00;100881.41;7398477;19;20865;-55
2021/09/25 05:16:51;;;;;;;39.17;22.83;;;;;;;15.21;100.00;100896.19;7391676;19;20494;-60
2021/09/25 05:19:20;;;;;;;39.53;21.87;;;;;;;15.27;100.00;100899.78;7400834;19;20467;-57
2021/09/25 05:21:50;;;;;;;44.87;25.00;;;;;;;15.31;100.00;100899.00;7393096;19;20422;-56
2021/09/25 05:24:22;;;;;;;43.47;24.47;;;;;;;15.24;100.00;100895.38;7398337;19;20475;-54
2021/09/25 05:26:51;;;;;;;48.03;25.33;;;;;;;15.30;100.00;100895.53;7392100;19;20426;-58
2021/09/25 05:29:21;;;;;;;40.93;23.23;;;;;;;15.33;100.00;100902.53;7399764;19;20854;-59
2021/09/25 05:31:51;;;;;;;47.30;23.30;;;;;;;15.25;100.00;100894.53;7390126;19;20483;-56
2021/09/25 05:34:20;;;;;;;47.77;22.30;;;;;;;15.21;100.00;100906.59;7398086;19;20416;-55
2021/09/25 05:36:50;;;;;;;44.87;24.57;;;;;;;15.30;100.00;100899.84;7392879;19;20423;-57
2021/09/25 05:39:22;;;;;;;50.33;25.20;;;;;;;15.37;100.00;100899.16;7399410;19;20658;-55
2021/09/25 05:41:51;;;;;;;44.37;24.90;;;;;;;15.38;100.00;100898.31;7392337;19;20495;-54
2021/09/25 05:44:21;;;;;;;44.53;24.77;;;;;;;15.38;100.00;100895.69;7397647;19;20757;-54
2021/09/25 05:46:50;;;;;;;48.30;24.47;;;;;;;15.38;100.00;100893.09;7391413;19;20427;-57
2021/09/25 05:49:20;;;;;;;61.23;27.03;;;;;;;15.40;100.00;100907.03;7399149;19;20650;-55
2021/09/25 05:51:50;;;;;;;46.63;25.10;;;;;;;15.37;100.00;100906.94;7392377;19;20424;-58
2021/09/25 05:54:22;;;;;;;48.30;26.17;;;;;;;15.38;100.00;100908.69;7397529;19;20420;-57
2021/09/25 05:56:52;;;;;;;55.17;26.40;;;;;;;15.45;100.00;100921.03;7390940;19;20499;-56
2021/09/25 05:59:21;;;;;;;53.03;26.93;;;;;;;15.47;100.00;100916.75;7399082;19;20399;-53
2021/09/25 06:01:51;;;;;;;57.50;28.03;;;;;;;15.46;100.00;100925.38;7392061;19;20419;-56
2021/09/25 06:04:22;;;;;;;52.10;21.50;;;;;;;15.38;100.00;100929.50;7397128;19;20491;-56
2021/09/25 06:06:52;;;;;;;57.03;28.07;;;;;;;15.48;100.00;100931.50;7391144;19;20521;-57
2021/09/25 06:09:24;;;;;;;58.80;26.60;;;;;;;15.41;100.00;100928.69;7398681;19;20396;-54
2021/09/25 06:11:54;;;;;;;59.70;26.80;;;;;;;15.41;100.00;100934.78;7390906;19;20923;-54
2021/09/25 06:14:24;;;;;;;60.50;28.30;;;;;;;15.40;100.00;100938.22;7395885;19;20482;-59
2021/09/25 06:16:54;;;;;;;52.50;27.53;;;;;;;15.39;100.00;100944.28;7363760;19;20423;-54
2021/09/25 06:19:24;;;;;;;60.53;26.70;;;;;;;15.38;100.00;100933.00;7401417;19;20858;-56
2021/09/25 06:21:53;;;;;;;64.27;29.47;;;;;;;15.48;100.00;100926.28;7391574;19;20495;-54
2021/09/25 06:24:26;;;;;;;77.67;34.43;;;;;;;15.50;100.00;100921.13;7399594;19;20487;-57
2021/09/25 06:26:55;;;;;;;59.90;28.40;;;;;;;15.55;100.00;100926.44;7390272;19;20471;-57
2021/09/25 06:29:25;;;;;;;57.20;28.30;;;;;;;15.53;100.00;100934.19;7397727;19;20410;-55
2021/09/25 06:31:54;;;;;;;56.70;28.70;;;;;;;15.58;100.00;100931.72;7372942;19;20982;-56
2021/09/25 06:34:24;;;;;;;64.83;27.60;;;;;;;15.52;100.00;100943.75;7399195;19;20465;-57
2021/09/25 06:36:54;;;;;;;63.10;26.20;;;;;;;15.52;100.00;100943.75;7361515;19;20454;-57
2021/09/25 06:39:26;;;;;;;52.67;27.40;;;;;;;15.47;100.00;100945.34;7398980;19;20418;-51
2021/09/25 06:41:55;;;;;;;78.83;29.10;;;;;;;15.47;100.00;100942.75;7368586;19;20450;-61
2021/09/25 06:44:25;;;;;;;90.70;34.60;;;;;;;15.50;100.00;100944.53;7402948;19;20473;-56
2021/09/25 06:46:54;;;;;;;62.27;28.10;;;;;;;15.55;100.00;100942.03;7372479;19;20427;-59
2021/09/25 06:49:24;;;;;;;50.63;25.30;;;;;;;15.50;100.00;100950.59;7404478;19;20393;-55
2021/09/25 06:51:54;;;;;;;55.63;23.53;;;;;;;15.53;100.00;100945.50;7370413;19;20942;-59
2021/09/25 06:54:26;;;;;;;55.50;26.50;;;;;;;15.58;100.00;100945.59;7401087;19;20438;-58
2021/09/25 06:56:55;;;;;;;49.00;25.50;;;;;;;15.55;100.00;100944.63;7376442;19;20425;-57
2021/09/25 06:59:25;;;;;;;51.43;25.07;;;;;;;15.57;100.00;100946.44;7401948;19;20392;-58
2021/09/25 07:01:54;;;;;;;54.67;24.73;;;;;;;15.69;100.00;100965.78;7398021;19;20511;-57
2021/09/25 07:04:24;;;;;;;56.90;24.83;;;;;;;15.80;100.00;100954.78;7402093;19;20411;-56
2021/09/25 07:06:54;;;;;;;50.13;24.20;;;;;;;15.81;100.00;100960.88;7396240;19;20429;-54
2021/09/25 07:09:26;;;;;;;60.30;29.23;;;;;;;15.82;100.00;100953.94;7403502;19;20843;-56
2021/09/25 07:11:55;;;;;;;53.10;23.07;;;;;;;15.84;100.00;100954.88;7397691;19;20416;-54
2021/09/25 07:14:25;;;;;;;44.80;22.33;;;;;;;15.86;100.00;100953.16;7400980;19;20759;-57
2021/09/25 07:16:54;;;;;;;50.77;24.70;;;;;;;15.88;100.00;100956.69;7382612;19;20423;-59
2021/09/25 07:19:24;;;;;;;41.53;21.73;;;;;;;15.86;100.00;100964.47;7401342;19;20392;-57
2021/09/25 07:21:53;;;;;;;48.63;20.77;;;;;;;15.80;100.00;100959.97;7397375;19;20435;-56
2021/09/25 07:24:25;;;;;;;50.57;21.57;;;;;;;15.87;100.00;100970.53;7405186;19;20519;-58
2021/09/25 07:26:55;;;;;;;42.63;22.77;;;;;;;15.90;100.00;100966.28;7394960;19;20879;-57
2021/09/25 07:29:24;;;;;;;43.43;21.70;;;;;;;15.98;100.00;100963.00;7403730;19;20475;-59
2021/09/25 07:31:54;;;;;;;47.03;20.47;;;;;;;16.04;100.00;100965.75;7396099;19;20411;-60
2021/09/25 07:34:23;;;;;;;49.17;20.57;;;;;;;15.95;100.00;100966.44;7400700;19;20440;-58
2021/09/25 07:36:53;;;;;;;46.20;21.17;;;;;;;15.99;100.00;100972.59;7395006;19;20416;-57
2021/09/25 07:39:22;;;;;;;51.37;22.83;;;;;;;15.96;100.00;100976.00;7400992;19;20400;-52
2021/09/25 07:41:54;;;;;;;39.00;19.70;;;;;;;16.02;100.00;100981.34;7395927;19;20469;-55
2021/09/25 07:44:24;;;;;;;33.80;17.07;;;;;;;15.97;100.00;100989.88;7401008;19;20479;-57
2021/09/25 07:46:53;;;;;;;36.60;19.90;;;;;;;16.00;100.00;100984.75;7394897;19;20433;-54
2021/09/25 07:49:23;;;;;;;39.23;18.90;;;;;;;16.00;100.00;100988.22;7402223;19;20402;-48
2021/09/25 07:51:52;;;;;;;35.80;19.73;;;;;;;16.01;100.00;100979.56;7395072;19;20422;-54
2021/09/25 07:54:22;;;;;;;34.47;17.27;;;;;;;16.16;100.00;100988.59;7397901;19;20415;-55
2021/09/25 07:56:51;;;;;;;36.27;18.37;;;;;;;16.21;100.00;100973.94;7394135;19;20423;-58
2021/09/25 07:59:23;;;;;;;48.43;22.00;;;;;;;16.24;100.00;100976.59;7400370;19;20751;-54
2021/09/25 08:01:53;;;;;;;39.97;18.90;;;;;;;16.39;100.00;100985.59;7395619;19;20458;-60
2021/09/25 08:04:23;;;;;;;33.17;16.33;;;;;;;16.51;100.00;100991.06;7399973;19;20449;-56
2021/09/25 08:06:52;;;;;;;37.53;16.90;;;;;;;16.54;100.00;100991.13;7393984;19;20506;-58
2021/09/25 08:09:23;;;;;;;43.30;18.13;;;;;;;16.52;100.00;100995.44;7401621;19;20396;-57
2021/09/25 08:11:54;;;;;;;33.97;17.93;;;;;;;16.58;100.00;100992.06;7391421;19;20789;-54
2021/09/25 08:14:26;;;;;;;39.80;16.57;;;;;;;16.56;100.00;100997.25;7400249;19;20475;-59
2021/09/25 08:16:55;;;;;;;27.40;15.50;;;;;;;16.59;100.00;100999.94;7392569;19;20415;-56
2021/09/25 08:19:25;;;;;;;31.37;16.07;;;;;;;16.53;100.00;100999.81;7400132;19;20388;-59
2021/09/25 08:21:54;;;;;;;29.57;15.50;;;;;;;16.48;100.00;101001.41;7393480;19;20431;-58
2021/09/25 08:24:24;;;;;;;34.07;15.30;;;;;;;16.60;100.00;101006.00;7401853;19;20419;-60
2021/09/25 08:26:54;;;;;;;27.57;15.47;;;;;;;16.71;100.00;101008.81;7391571;19;20422;-55
2021/09/25 08:29:26;;;;;;;31.10;16.07;;;;;;;16.66;100.00;101010.47;7400792;19;20459;-57
2021/09/25 08:31:58;;;;;;;30.67;14.63;;;;;;;16.72;100.00;101008.00;7393454;19;20418;-57
2021/09/25 08:34:27;;;;;;;26.10;15.10;;;;;;;16.79;100.00;101008.97;7399483;19;20416;-56
2021/09/25 08:36:57;;;;;;;26.53;14.27;;;;;;;16.78;100.00;101022.84;7390295;19;20451;-56
2021/09/25 08:39:27;;;;;;;46.37;23.43;;;;;;;16.80;100.00;101022.03;7399424;19;20395;-56
2021/09/25 08:41:56;;;;;;;36.37;19.13;;;;;;;16.83;100.00;101024.69;7394392;19;20413;-58
2021/09/25 08:44:30;;;;;;;53.40;24.40;;;;;;;16.96;100.00;101024.94;7398915;19;20410;-57
2021/09/25 08:47:00;;;;;;;68.03;27.00;;;;;;;16.82;100.00;101030.75;7393598;19;20419;-60
2021/09/25 08:49:29;;;;;;;100.80;38.23;;;;;;;16.88;100.00;101028.28;7400194;19;20388;-57
2021/09/25 08:51:59;;;;;;;53.43;25.43;;;;;;;16.84;100.00;101036.91;7397655;19;20801;-56
2021/09/25 08:54:29;;;;;;;33.43;14.90;;;;;;;16.97;100.00;101044.97;7398605;19;20439;-57
2021/09/25 08:56:58;;;;;;;29.47;13.43;;;;;;;17.01;100.00;101044.16;7393085;19;20482;-58
2021/09/25 08:59:30;;;;;;;39.70;18.10;;;;;;;17.04;100.00;101044.28;7399183;19;20460;-58
2021/09/25 09:02:11;;;;;;;67.03;30.30;;;;;;;17.05;100.00;101040.81;7392032;19;20419;-52
2021/09/25 09:04:45;;;;;;;27.97;15.90;;;;;;;17.00;100.00;101039.81;7400380;19;20392;-55
2021/09/25 09:07:16;;;;;;;30.17;13.83;;;;;;;17.18;100.00;101041.03;7345734;19;20426;-56
2021/09/25 09:09:46;;;;;;;44.70;19.63;;;;;;;17.05;100.00;101040.81;7400135;19;20847;-57
2021/09/25 09:12:23;;;;;;;36.73;16.33;;;;;;;17.03;100.00;101042.53;7392197;19;20419;-60
2021/09/25 09:14:56;;;;;;;25.67;14.80;;;;;;;17.21;100.00;101035.88;7399792;19;20383;-57
2021/09/25 09:17:27;;;;;;;31.00;15.17;;;;;;;17.06;100.00;101045.16;7344855;19;21048;-57
2021/09/25 09:19:57;;;;;;;29.20;14.53;;;;;;;17.16;100.00;101037.53;7398742;19;20672;-58
2021/09/25 09:22:27;;;;;;;29.03;15.80;;;;;;;17.14;100.00;101038.38;7395001;19;20734;-54
2021/09/25 09:24:58;;;;;;;30.13;15.63;;;;;;;17.21;100.00;101041.09;7402762;19;20399;-53
2021/09/25 09:27:30;;;;;;;21.73;14.23;;;;;;;17.40;100.00;101043.19;7390745;19;20429;-53
2021/09/25 09:30:13;;;;;;;30.17;16.23;;;;;;;17.40;100.00;101037.09;7399430;19;20841;-55
2021/09/25 09:32:45;;;;;;;26.90;16.33;;;;;;;17.31;100.00;101042.13;7391354;19;20441;-56
2021/09/25 09:35:18;;;;;;;25.63;16.90;;;;;;;17.49;100.00;101047.69;7399170;19;20451;-56
2021/09/25 09:37:48;;;;;;;21.77;13.80;;;;;;;17.45;100.00;101045.00;7395036;19;20443;-58
2021/09/25 09:40:17;;;;;;;31.37;17.30;;;;;;;17.61;100.00;101040.94;7398220;19;20479;-55
2021/09/25 09:42:48;;;;;;;31.40;17.20;;;;;;;17.62;100.00;101042.69;7390071;19;20475;-50
2021/09/25 09:45:31;;;;;;;32.17;14.00;;;;;;;17.82;100.00;101045.63;7398852;19;20400;-59
2021/09/25 09:48:00;;;;;;;29.40;14.87;;;;;;;17.83;100.00;101052.59;7391512;19;20422;-56
2021/09/25 09:50:31;;;;;;;24.67;13.33;;;;;;;17.62;100.00;101054.00;7398865;19;20744;-53
2021/09/25 09:53:12;;;;;;;26.80;13.27;;;;;;;17.71;100.00;101052.41;7390546;19;20425;-54
2021/09/25 09:55:46;;;;;;;80.93;30.13;;;;;;;17.62;100.00;101051.41;7389713;19;20398;-56
2021/09/25 09:58:16;;;;;;;29.67;15.10;;;;;;;17.73;100.00;101055.94;7398583;19;20455;-58
2021/09/25 10:00:48;;;;;;;34.53;16.90;;;;;;;17.76;100.00;101058.59;7389879;19;20447;-57
2021/09/25 10:03:18;;;;;;;27.33;15.40;;;;;;;17.86;100.00;101060.50;7396476;19;20419;-53
2021/09/25 10:05:48;;;;;;;34.10;15.30;;;;;;;17.67;100.00;101057.59;7390160;19;20818;-56
2021/09/25 10:08:17;;;;;;;51.20;24.10;;;;;;;17.76;100.00;101066.41;7398090;19;20400;-56
2021/09/25 10:10:47;;;;;;;45.37;20.23;;;;;;;17.81;100.00;101055.19;7386661;19;20391;-52
2021/09/25 10:13:17;;;;;;;41.50;18.10;;;;;;;17.95;100.00;101062.38;7396425;19;20759;-53
2021/09/25 10:15:49;;;;;;;37.47;16.67;;;;;;;18.05;100.00;101059.09;7389750;19;20392;-59
2021/09/25 10:18:19;;;;;;;35.77;16.50;;;;;;;18.09;100.00;101060.00;7401882;19;20387;-56
2021/09/25 10:20:49;;;;;;;32.13;15.17;;;;;;;17.95;100.00;101067.59;7375159;19;20890;-56
2021/09/25 10:23:19;;;;;;;21.17;12.23;;;;;;;18.07;100.00;101069.56;7402254;19;20490;-56
2021/09/25 10:25:48;;;;;;;33.30;17.00;;;;;;;17.93;100.00;101067.56;7397651;19;20372;-55
2021/09/25 10:28:25;;;;;;;36.93;18.30;;;;;;;18.08;100.00;101063.47;7405597;19;20404;-58
2021/09/25 10:30:57;;;;;;;29.87;14.77;;;;;;;18.07;100.00;101056.50;7398336;19;20384;-53
2021/09/25 10:33:27;;;;;;;25.77;13.50;;;;;;;18.17;100.00;101062.75;7403192;19;20441;-57
2021/09/25 10:35:57;;;;;;;20.10;12.40;;;;;;;18.32;100.00;101056.88;7396518;19;20387;-55
2021/09/25 10:38:35;;;;;;;45.90;18.40;;;;;;;18.25;100.00;101066.34;7404629;19;20467;-60
2021/09/25 10:41:25;;;;;;;20.87;11.40;;;;;;;18.37;100.00;101060.44;7396210;19;20399;-58
2021/09/25 10:43:55;;;;;;;15.20;10.93;;;;;;;18.45;100.00;101065.75;7402805;19;20430;-58
2021/09/25 10:46:27;;;;;;;19.00;10.93;;;;;;;18.47;100.00;101057.06;7400195;19;20415;-59
2021/09/25 10:48:57;;;;;;;31.50;12.80;;;;;;;18.54;100.00;101054.53;7404729;19;20387;-57
2021/09/25 10:51:31;;;;;;;23.60;13.30;;;;;;;18.54;100.00;101057.16;7401176;19;20515;-60
2021/09/25 10:54:04;;;;;;;21.13;12.50;;;;;;;18.57;100.00;101052.00;7402411;19;20745;-55
2021/09/25 10:56:34;;;;;;;22.70;12.90;;;;;;;18.75;100.00;101060.06;7397170;19;20423;-56
2021/09/25 10:59:06;;;;;;;18.23;10.67;;;;;;;18.80;100.00;101054.00;7404494;19;20403;-56
2021/09/25 11:01:40;;;;;;;41.53;21.33;;;;;;;18.86;100.00;101064.53;7387907;19;20419;-54
2021/09/25 11:04:12;;;;;;;20.43;12.27;;;;;;;18.66;100.00;101059.94;7402002;19;20441;-57
2021/09/25 11:06:49;;;;;;;23.93;13.67;;;;;;;18.57;100.00;101062.44;7389185;19;20415;-55
2021/09/25 11:09:22;;;;;;;21.37;13.00;;;;;;;18.51;100.00;101064.97;7404030;19;20396;-59
2021/09/25 11:11:52;;;;;;;69.83;26.00;;;;;;;18.66;100.00;101054.72;7396934;19;20479;-53
2021/09/25 11:14:27;;;;;;;20.17;10.73;;;;;;;18.88;100.00;101060.22;7405091;19;20426;-55
2021/09/25 11:17:05;;;;;;;18.20;9.40;;;;;;;18.96;100.00;101060.28;7396609;19;20423;-55
2021/09/25 11:19:38;;;;;;;31.63;15.17;;;;;;;19.15;100.00;101061.44;7398373;19;20415;-52